sensor_id;sensor_type;location;lat;lon;timestamp;P1;durP1;ratioP1;P2;durP2;ratioP2
57055;SDS011;42945;51.718;5.324;2023-02-17T00:01:31;13.93;;;8.50;;
57055;SDS011;42945;51.718;5.324;2023-02-17T00:07:20;13.57;;;8.65;;
57055;SDS011;42945;51.718;5.324;2023-02-17T00:13:08;15.82;;;8.88;;
57055;SDS011;42945;51.718;5.324;2023-02-17T00:18:59;14.40;;;8.40;;
57055;SDS011;42945;51.718;5.324;2023-02-17T00:24:48;14.10;;;9.73;;
57055;SDS011;42945;51.718;5.324;2023-02-17T00:30:36;16.67;;;8.88;;
57055;SDS011;42945;51.718;5.324;2023-02-17T00:36:25;14.00;;;8.98;;
57055;SDS011;42945;51.718;5.324;2023-02-17T00:42:15;14.82;;;8.27;;
57055;SDS011;42945;51.718;5.324;2023-02-17T00:48:02;14.32;;;9.20;;
57055;SDS011;42945;51.718;5.324;2023-02-17T00:57:26;14.45;;;8.27;;
57055;SDS011;42945;51.718;5.324;2023-02-17T01:03:18;14.88;;;8.40;;
57055;SDS011;42945;51.718;5.324;2023-02-17T01:09:07;13.80;;;7.55;;
57055;SDS011;42945;51.718;5.324;2023-02-17T01:15:00;13.30;;;7.90;;
57055;SDS011;42945;51.718;5.324;2023-02-17T01:20:48;16.00;;;9.10;;
57055;SDS011;42945;51.718;5.324;2023-02-17T01:26:37;15.18;;;8.10;;
57055;SDS011;42945;51.718;5.324;2023-02-17T01:32:26;18.20;;;8.82;;
57055;SDS011;42945;51.718;5.324;2023-02-17T01:38:14;16.92;;;9.60;;
57055;SDS011;42945;51.718;5.324;2023-02-17T01:49:56;18.88;;;10.63;;
57055;SDS011;42945;51.718;5.324;2023-02-17T01:59:30;16.25;;;10.35;;
57055;SDS011;42945;51.718;5.324;2023-02-17T02:05:19;17.67;;;9.90;;
57055;SDS011;42945;51.718;5.324;2023-02-17T02:11:08;20.05;;;10.70;;
57055;SDS011;42945;51.718;5.324;2023-02-17T02:17:03;19.30;;;10.68;;
57055;SDS011;42945;51.718;5.324;2023-02-17T02:41:55;17.35;;;10.02;;
57055;SDS011;42945;51.718;5.324;2023-02-17T02:47:54;15.82;;;9.65;;
57055;SDS011;42945;51.718;5.324;2023-02-17T03:00:08;17.33;;;10.25;;
57055;SDS011;42945;51.718;5.324;2023-02-17T03:12:15;20.33;;;12.73;;
57055;SDS011;42945;51.718;5.324;2023-02-17T03:18:04;20.63;;;12.50;;
57055;SDS011;42945;51.718;5.324;2023-02-17T03:23:51;20.83;;;13.30;;
57055;SDS011;42945;51.718;5.324;2023-02-17T03:29:40;26.90;;;15.52;;
57055;SDS011;42945;51.718;5.324;2023-02-17T03:35:27;26.00;;;15.63;;
57055;SDS011;42945;51.718;5.324;2023-02-17T03:41:16;24.08;;;14.35;;
57055;SDS011;42945;51.718;5.324;2023-02-17T03:47:04;25.65;;;15.23;;
57055;SDS011;42945;51.718;5.324;2023-02-17T03:52:52;24.65;;;15.13;;
57055;SDS011;42945;51.718;5.324;2023-02-17T04:02:40;25.40;;;14.18;;
57055;SDS011;42945;51.718;5.324;2023-02-17T04:08:28;22.38;;;13.38;;
57055;SDS011;42945;51.718;5.324;2023-02-17T04:14:15;24.10;;;13.23;;
57055;SDS011;42945;51.718;5.324;2023-02-17T04:20:04;25.60;;;13.88;;
57055;SDS011;42945;51.718;5.324;2023-02-17T04:25:53;24.73;;;15.63;;
57055;SDS011;42945;51.718;5.324;2023-02-17T04:31:42;23.50;;;14.68;;
57055;SDS011;42945;51.718;5.324;2023-02-17T04:37:29;26.85;;;16.13;;
57055;SDS011;42945;51.718;5.324;2023-02-17T04:43:17;27.98;;;14.95;;
57055;SDS011;42945;51.718;5.324;2023-02-17T04:49:04;26.95;;;15.68;;
57055;SDS011;42945;51.718;5.324;2023-02-17T04:54:53;31.02;;;15.13;;
57055;SDS011;42945;51.718;5.324;2023-02-17T05:00:57;26.25;;;14.82;;
57055;SDS011;42945;51.718;5.324;2023-02-17T05:06:46;28.27;;;16.90;;
57055;SDS011;42945;51.718;5.324;2023-02-17T05:12:33;25.23;;;15.55;;
57055;SDS011;42945;51.718;5.324;2023-02-17T05:18:22;26.70;;;15.30;;
57055;SDS011;42945;51.718;5.324;2023-02-17T05:24:10;27.17;;;15.32;;
57055;SDS011;42945;51.718;5.324;2023-02-17T05:29:57;27.88;;;17.25;;
57055;SDS011;42945;51.718;5.324;2023-02-17T05:35:45;26.30;;;16.52;;
57055;SDS011;42945;51.718;5.324;2023-02-17T05:41:34;25.35;;;16.17;;
57055;SDS011;42945;51.718;5.324;2023-02-17T05:47:24;25.85;;;15.18;;
57055;SDS011;42945;51.718;5.324;2023-02-17T05:53:11;26.15;;;14.75;;
57055;SDS011;42945;51.718;5.324;2023-02-17T05:58:59;25.70;;;14.50;;
57055;SDS011;42945;51.718;5.324;2023-02-17T06:04:47;26.13;;;15.55;;
57055;SDS011;42945;51.718;5.324;2023-02-17T06:10:35;28.00;;;16.73;;
57055;SDS011;42945;51.718;5.324;2023-02-17T06:16:23;27.73;;;15.75;;
57055;SDS011;42945;51.718;5.324;2023-02-17T06:22:10;26.40;;;14.52;;
57055;SDS011;42945;51.718;5.324;2023-02-17T06:28:01;30.52;;;16.17;;
57055;SDS011;42945;51.718;5.324;2023-02-17T06:33:49;25.50;;;13.80;;
57055;SDS011;42945;51.718;5.324;2023-02-17T06:39:37;25.35;;;14.32;;
57055;SDS011;42945;51.718;5.324;2023-02-17T06:45:25;30.60;;;17.25;;
57055;SDS011;42945;51.718;5.324;2023-02-17T06:51:12;29.73;;;17.60;;
57055;SDS011;42945;51.718;5.324;2023-02-17T06:57:00;33.30;;;19.13;;
57055;SDS011;42945;51.718;5.324;2023-02-17T07:06:25;31.30;;;17.40;;
57055;SDS011;42945;51.718;5.324;2023-02-17T07:12:12;28.52;;;18.13;;
57055;SDS011;42945;51.718;5.324;2023-02-17T07:18:01;25.88;;;15.15;;
57055;SDS011;42945;51.718;5.324;2023-02-17T07:23:50;27.30;;;15.63;;
57055;SDS011;42945;51.718;5.324;2023-02-17T07:29:38;24.98;;;15.40;;
57055;SDS011;42945;51.718;5.324;2023-02-17T07:35:26;25.30;;;14.70;;
57055;SDS011;42945;51.718;5.324;2023-02-17T07:41:15;27.73;;;15.48;;
57055;SDS011;42945;51.718;5.324;2023-02-17T07:47:05;26.38;;;16.23;;
57055;SDS011;42945;51.718;5.324;2023-02-17T07:52:54;25.85;;;15.50;;
57055;SDS011;42945;51.718;5.324;2023-02-17T07:58:42;24.80;;;14.57;;
57055;SDS011;42945;51.718;5.324;2023-02-17T08:08:06;24.35;;;14.68;;
57055;SDS011;42945;51.718;5.324;2023-02-17T08:14:13;27.88;;;15.27;;
57055;SDS011;42945;51.718;5.324;2023-02-17T08:20:02;27.15;;;14.82;;
57055;SDS011;42945;51.718;5.324;2023-02-17T08:25:51;22.15;;;13.73;;
57055;SDS011;42945;51.718;5.324;2023-02-17T08:31:39;22.40;;;14.77;;
57055;SDS011;42945;51.718;5.324;2023-02-17T08:37:28;22.35;;;13.10;;
57055;SDS011;42945;51.718;5.324;2023-02-17T08:43:18;19.10;;;13.23;;
57055;SDS011;42945;51.718;5.324;2023-02-17T08:49:07;17.17;;;10.68;;
57055;SDS011;42945;51.718;5.324;2023-02-17T08:54:54;19.02;;;11.82;;
57055;SDS011;42945;51.718;5.324;2023-02-17T09:00:41;15.15;;;10.02;;
57055;SDS011;42945;51.718;5.324;2023-02-17T09:10:18;15.80;;;9.35;;
57055;SDS011;42945;51.718;5.324;2023-02-17T09:16:05;12.18;;;7.32;;
57055;SDS011;42945;51.718;5.324;2023-02-17T09:21:54;15.70;;;7.68;;
57055;SDS011;42945;51.718;5.324;2023-02-17T09:27:43;10.95;;;7.60;;
57055;SDS011;42945;51.718;5.324;2023-02-17T09:33:31;9.93;;;6.57;;
57055;SDS011;42945;51.718;5.324;2023-02-17T09:39:20;8.95;;;5.78;;
57055;SDS011;42945;51.718;5.324;2023-02-17T09:45:28;6.82;;;4.55;;
57055;SDS011;42945;51.718;5.324;2023-02-17T09:51:27;6.90;;;5.07;;
57055;SDS011;42945;51.718;5.324;2023-02-17T09:57:39;7.00;;;4.88;;
57055;SDS011;42945;51.718;5.324;2023-02-17T10:03:40;7.68;;;5.13;;
57055;SDS011;42945;51.718;5.324;2023-02-17T10:13:33;8.85;;;5.28;;
57055;SDS011;42945;51.718;5.324;2023-02-17T10:20:07;7.28;;;3.85;;
57055;SDS011;42945;51.718;5.324;2023-02-17T10:25:50;7.88;;;4.63;;
57055;SDS011;42945;51.718;5.324;2023-02-17T10:37:49;5.70;;;3.65;;
57055;SDS011;42945;51.718;5.324;2023-02-17T10:43:48;6.25;;;3.70;;
57055;SDS011;42945;51.718;5.324;2023-02-17T10:49:38;6.25;;;3.63;;
57055;SDS011;42945;51.718;5.324;2023-02-17T10:55:39;6.22;;;3.40;;
57055;SDS011;42945;51.718;5.324;2023-02-17T11:01:35;7.40;;;3.55;;
57055;SDS011;42945;51.718;5.324;2023-02-17T11:07:45;6.65;;;3.58;;
57055;SDS011;42945;51.718;5.324;2023-02-17T11:13:34;5.65;;;3.00;;
57055;SDS011;42945;51.718;5.324;2023-02-17T11:19:26;6.30;;;3.28;;
57055;SDS011;42945;51.718;5.324;2023-02-17T11:31:24;5.43;;;3.13;;
57055;SDS011;42945;51.718;5.324;2023-02-17T11:43:14;6.80;;;3.60;;
57055;SDS011;42945;51.718;5.324;2023-02-17T11:55:17;7.53;;;3.67;;
57055;SDS011;42945;51.718;5.324;2023-02-17T12:13:43;6.32;;;3.70;;
57055;SDS011;42945;51.718;5.324;2023-02-17T12:20:04;7.25;;;3.72;;
57055;SDS011;42945;51.718;5.324;2023-02-17T12:32:33;7.07;;;3.58;;
57055;SDS011;42945;51.718;5.324;2023-02-17T12:38:52;5.43;;;3.10;;
57055;SDS011;42945;51.718;5.324;2023-02-17T12:44:46;7.10;;;3.30;;
57055;SDS011;42945;51.718;5.324;2023-02-17T12:51:25;6.50;;;3.05;;
57055;SDS011;42945;51.718;5.324;2023-02-17T12:57:43;4.28;;;2.65;;
57055;SDS011;42945;51.718;5.324;2023-02-17T13:03:50;9.05;;;2.60;;
57055;SDS011;42945;51.718;5.324;2023-02-17T13:09:39;7.32;;;2.78;;
57055;SDS011;42945;51.718;5.324;2023-02-17T13:15:32;7.95;;;2.90;;
57055;SDS011;42945;51.718;5.324;2023-02-17T13:45:34;6.83;;;3.30;;
57055;SDS011;42945;51.718;5.324;2023-02-17T13:51:27;10.13;;;3.13;;
57055;SDS011;42945;51.718;5.324;2023-02-17T13:57:35;9.23;;;3.70;;
57055;SDS011;42945;51.718;5.324;2023-02-17T14:03:26;7.63;;;3.22;;
57055;SDS011;42945;51.718;5.324;2023-02-17T14:15:16;9.75;;;3.63;;
57055;SDS011;42945;51.718;5.324;2023-02-17T14:21:08;7.13;;;2.90;;
57055;SDS011;42945;51.718;5.324;2023-02-17T14:27:09;9.48;;;3.33;;
57055;SDS011;42945;51.718;5.324;2023-02-17T14:33:22;7.90;;;3.20;;
57055;SDS011;42945;51.718;5.324;2023-02-17T14:39:11;6.70;;;3.53;;
57055;SDS011;42945;51.718;5.324;2023-02-17T14:45:01;6.32;;;2.50;;
57055;SDS011;42945;51.718;5.324;2023-02-17T14:50:50;8.50;;;3.00;;
57055;SDS011;42945;51.718;5.324;2023-02-17T14:56:42;6.80;;;2.75;;
57055;SDS011;42945;51.718;5.324;2023-02-17T15:02:39;8.70;;;3.08;;
57055;SDS011;42945;51.718;5.324;2023-02-17T15:08:34;7.28;;;3.13;;
57055;SDS011;42945;51.718;5.324;2023-02-17T15:14:23;7.47;;;2.90;;
57055;SDS011;42945;51.718;5.324;2023-02-17T15:20:12;7.00;;;3.28;;
57055;SDS011;42945;51.718;5.324;2023-02-17T15:26:01;6.93;;;3.60;;
57055;SDS011;42945;51.718;5.324;2023-02-17T15:31:50;7.28;;;3.60;;
57055;SDS011;42945;51.718;5.324;2023-02-17T15:37:42;8.65;;;3.50;;
57055;SDS011;42945;51.718;5.324;2023-02-17T15:43:32;8.63;;;3.40;;
57055;SDS011;42945;51.718;5.324;2023-02-17T15:49:21;6.97;;;3.92;;
57055;SDS011;42945;51.718;5.324;2023-02-17T15:55:10;6.80;;;3.88;;
57055;SDS011;42945;51.718;5.324;2023-02-17T16:01:02;8.70;;;3.63;;
57055;SDS011;42945;51.718;5.324;2023-02-17T16:06:49;7.55;;;3.90;;
57055;SDS011;42945;51.718;5.324;2023-02-17T16:09:14;8.95;;;4.13;;
57055;SDS011;42945;51.718;5.324;2023-02-17T16:15:03;9.68;;;4.43;;
57055;SDS011;42945;51.718;5.324;2023-02-17T16:20:52;8.68;;;4.82;;
57055;SDS011;42945;51.718;5.324;2023-02-17T16:26:39;12.05;;;5.97;;
57055;SDS011;42945;51.718;5.324;2023-02-17T16:32:29;12.88;;;6.00;;
57055;SDS011;42945;51.718;5.324;2023-02-17T16:38:21;11.45;;;6.57;;
57055;SDS011;42945;51.718;5.324;2023-02-17T16:44:11;15.13;;;5.53;;
57055;SDS011;42945;51.718;5.324;2023-02-17T16:50:02;13.20;;;5.85;;
57055;SDS011;42945;51.718;5.324;2023-02-17T16:55:54;12.90;;;6.10;;
57055;SDS011;42945;51.718;5.324;2023-02-17T17:01:43;11.98;;;5.65;;
57055;SDS011;42945;51.718;5.324;2023-02-17T17:07:32;16.80;;;6.95;;
57055;SDS011;42945;51.718;5.324;2023-02-17T17:13:21;11.35;;;5.75;;
57055;SDS011;42945;51.718;5.324;2023-02-17T17:19:11;13.27;;;5.85;;
57055;SDS011;42945;51.718;5.324;2023-02-17T17:25:06;12.15;;;5.75;;
57055;SDS011;42945;51.718;5.324;2023-02-17T17:30:54;16.17;;;6.65;;
57055;SDS011;42945;51.718;5.324;2023-02-17T17:36:44;11.73;;;6.20;;
57055;SDS011;42945;51.718;5.324;2023-02-17T17:42:34;14.10;;;6.13;;
57055;SDS011;42945;51.718;5.324;2023-02-17T17:48:23;13.98;;;7.10;;
57055;SDS011;42945;51.718;5.324;2023-02-17T17:54:11;18.88;;;6.95;;
57055;SDS011;42945;51.718;5.324;2023-02-17T17:59:58;17.08;;;7.53;;
57055;SDS011;42945;51.718;5.324;2023-02-17T18:05:46;16.13;;;6.68;;
57055;SDS011;42945;51.718;5.324;2023-02-17T18:15:09;18.10;;;7.00;;
57055;SDS011;42945;51.718;5.324;2023-02-17T18:20:58;13.65;;;8.30;;
57055;SDS011;42945;51.718;5.324;2023-02-17T18:26:47;17.98;;;8.43;;
57055;SDS011;42945;51.718;5.324;2023-02-17T18:32:38;15.48;;;8.50;;
57055;SDS011;42945;51.718;5.324;2023-02-17T18:38:26;21.05;;;9.77;;
57055;SDS011;42945;51.718;5.324;2023-02-17T18:44:14;19.40;;;9.50;;
57055;SDS011;42945;51.718;5.324;2023-02-17T18:50:03;22.80;;;11.10;;
57055;SDS011;42945;51.718;5.324;2023-02-17T18:55:52;17.25;;;9.82;;
57055;SDS011;42945;51.718;5.324;2023-02-17T19:01:41;18.67;;;9.98;;
57055;SDS011;42945;51.718;5.324;2023-02-17T19:07:29;23.13;;;11.05;;
57055;SDS011;42945;51.718;5.324;2023-02-17T19:13:24;22.30;;;11.52;;
57055;SDS011;42945;51.718;5.324;2023-02-17T19:19:11;19.35;;;10.80;;
57055;SDS011;42945;51.718;5.324;2023-02-17T19:25:00;22.00;;;9.98;;
57055;SDS011;42945;51.718;5.324;2023-02-17T19:30:49;22.58;;;11.10;;
57055;SDS011;42945;51.718;5.324;2023-02-17T19:36:37;26.30;;;12.02;;
57055;SDS011;42945;51.718;5.324;2023-02-17T19:42:25;26.92;;;12.48;;
57055;SDS011;42945;51.718;5.324;2023-02-17T19:48:13;24.80;;;14.38;;
57055;SDS011;42945;51.718;5.324;2023-02-17T19:54:05;34.60;;;15.02;;
57055;SDS011;42945;51.718;5.324;2023-02-17T19:59:54;28.88;;;15.07;;
57055;SDS011;42945;51.718;5.324;2023-02-17T20:05:42;28.05;;;14.43;;
57055;SDS011;42945;51.718;5.324;2023-02-17T20:11:30;24.95;;;12.75;;
57055;SDS011;42945;51.718;5.324;2023-02-17T20:17:19;24.75;;;10.48;;
57055;SDS011;42945;51.718;5.324;2023-02-17T20:23:07;32.17;;;13.95;;
57055;SDS011;42945;51.718;5.324;2023-02-17T20:28:55;29.45;;;14.20;;
57055;SDS011;42945;51.718;5.324;2023-02-17T20:34:44;31.88;;;13.80;;
57055;SDS011;42945;51.718;5.324;2023-02-17T20:40:33;26.20;;;12.32;;
57055;SDS011;42945;51.718;5.324;2023-02-17T20:46:22;29.95;;;13.68;;
57055;SDS011;42945;51.718;5.324;2023-02-17T20:52:12;28.50;;;13.50;;
57055;SDS011;42945;51.718;5.324;2023-02-17T20:58:01;31.77;;;13.27;;
57055;SDS011;42945;51.718;5.324;2023-02-17T21:03:50;30.83;;;13.50;;
57055;SDS011;42945;51.718;5.324;2023-02-17T21:09:38;33.33;;;14.65;;
57055;SDS011;42945;51.718;5.324;2023-02-17T21:19:21;35.22;;;16.23;;
57055;SDS011;42945;51.718;5.324;2023-02-17T21:25:09;40.22;;;18.05;;
57055;SDS011;42945;51.718;5.324;2023-02-17T21:30:58;42.92;;;19.65;;
57055;SDS011;42945;51.718;5.324;2023-02-17T21:36:47;38.88;;;19.90;;
57055;SDS011;42945;51.718;5.324;2023-02-17T21:42:36;49.47;;;20.60;;
57055;SDS011;42945;51.718;5.324;2023-02-17T21:48:45;41.15;;;20.35;;
57055;SDS011;42945;51.718;5.324;2023-02-17T21:54:34;54.78;;;21.55;;
57055;SDS011;42945;51.718;5.324;2023-02-17T22:00:21;43.97;;;19.27;;
57055;SDS011;42945;51.718;5.324;2023-02-17T22:06:17;50.10;;;21.55;;
57055;SDS011;42945;51.718;5.324;2023-02-17T22:12:08;41.85;;;18.95;;
57055;SDS011;42945;51.718;5.324;2023-02-17T22:21:58;40.08;;;18.27;;
57055;SDS011;42945;51.718;5.324;2023-02-17T22:27:46;48.75;;;18.75;;
57055;SDS011;42945;51.718;5.324;2023-02-17T22:33:35;49.37;;;19.83;;
57055;SDS011;42945;51.718;5.324;2023-02-17T22:39:23;39.00;;;15.77;;
57055;SDS011;42945;51.718;5.324;2023-02-17T22:45:11;40.10;;;17.52;;
57055;SDS011;42945;51.718;5.324;2023-02-17T22:51:05;45.60;;;17.50;;
57055;SDS011;42945;51.718;5.324;2023-02-17T22:56:55;43.30;;;18.20;;
57055;SDS011;42945;51.718;5.324;2023-02-17T23:02:44;49.03;;;19.15;;
57055;SDS011;42945;51.718;5.324;2023-02-17T23:08:33;40.97;;;18.48;;
57055;SDS011;42945;51.718;5.324;2023-02-17T23:14:25;46.03;;;19.42;;
57055;SDS011;42945;51.718;5.324;2023-02-17T23:20:34;51.35;;;21.83;;
57055;SDS011;42945;51.718;5.324;2023-02-17T23:26:25;52.92;;;23.10;;
57055;SDS011;42945;51.718;5.324;2023-02-17T23:32:12;51.80;;;23.02;;
57055;SDS011;42945;51.718;5.324;2023-02-17T23:38:01;56.90;;;23.27;;
57055;SDS011;42945;51.718;5.324;2023-02-17T23:43:49;58.75;;;24.05;;
57055;SDS011;42945;51.718;5.324;2023-02-17T23:49:37;56.30;;;23.85;;
57055;SDS011;42945;51.718;5.324;2023-02-17T23:55:25;52.65;;;23.42;;
